sensor_id;sensor_type;location;lat;lon;timestamp;temperature;humidity
2389;DHT22;1205;47.984;7.668;2023-06-24T00:00:04;19.20;98.80
2389;DHT22;1205;47.984;7.668;2023-06-24T00:02:34;19.20;99.60
2389;DHT22;1205;47.984;7.668;2023-06-24T00:05:03;19.20;98.90
2389;DHT22;1205;47.984;7.668;2023-06-24T00:07:29;19.20;99.00
2389;DHT22;1205;47.984;7.668;2023-06-24T00:09:55;19.20;99.70
2389;DHT22;1205;47.984;7.668;2023-06-24T00:12:21;19.10;99.90
2389;DHT22;1205;47.984;7.668;2023-06-24T00:14:47;19.00;99.90
2389;DHT22;1205;47.984;7.668;2023-06-24T00:17:13;19.00;99.90
2389;DHT22;1205;47.984;7.668;2023-06-24T00:19:38;18.80;99.90
2389;DHT22;1205;47.984;7.668;2023-06-24T00:22:04;18.80;99.90
2389;DHT22;1205;47.984;7.668;2023-06-24T00:24:31;18.80;99.90
2389;DHT22;1205;47.984;7.668;2023-06-24T00:26:57;18.80;99.90
2389;DHT22;1205;47.984;7.668;2023-06-24T00:29:22;18.90;99.90
2389;DHT22;1205;47.984;7.668;2023-06-24T00:31:48;18.90;99.90
2389;DHT22;1205;47.984;7.668;2023-06-24T00:34:14;18.80;99.90
2389;DHT22;1205;47.984;7.668;2023-06-24T00:36:39;18.70;99.90
2389;DHT22;1205;47.984;7.668;2023-06-24T00:39:06;18.70;99.90
2389;DHT22;1205;47.984;7.668;2023-06-24T00:41:32;18.60;99.90
2389;DHT22;1205;47.984;7.668;2023-06-24T00:43:59;18.60;99.90
2389;DHT22;1205;47.984;7.668;2023-06-24T00:46:25;18.60;99.90
2389;DHT22;1205;47.984;7.668;2023-06-24T00:48:57;18.60;99.90
2389;DHT22;1205;47.984;7.668;2023-06-24T00:51:23;18.50;99.90
2389;DHT22;1205;47.984;7.668;2023-06-24T00:53:59;18.50;99.90
2389;DHT22;1205;47.984;7.668;2023-06-24T00:56:31;18.40;99.90
2389;DHT22;1205;47.984;7.668;2023-06-24T00:58:58;18.40;99.90
2389;DHT22;1205;47.984;7.668;2023-06-24T01:01:29;18.50;99.90
2389;DHT22;1205;47.984;7.668;2023-06-24T01:03:59;18.60;99.90
2389;DHT22;1205;47.984;7.668;2023-06-24T01:06:25;18.70;99.90
2389;DHT22;1205;47.984;7.668;2023-06-24T01:08:54;18.50;99.90
2389;DHT22;1205;47.984;7.668;2023-06-24T01:11:22;18.40;99.90
2389;DHT22;1205;47.984;7.668;2023-06-24T01:13:48;18.40;99.90
2389;DHT22;1205;47.984;7.668;2023-06-24T01:16:37;18.40;99.90
2389;DHT22;1205;47.984;7.668;2023-06-24T01:22:41;18.30;99.90
2389;DHT22;1205;47.984;7.668;2023-06-24T01:28:20;18.40;99.90
2389;DHT22;1205;47.984;7.668;2023-06-24T01:34:14;18.50;99.90
2389;DHT22;1205;47.984;7.668;2023-06-24T01:36:50;18.40;99.90
2389;DHT22;1205;47.984;7.668;2023-06-24T01:39:18;18.40;99.90
2389;DHT22;1205;47.984;7.668;2023-06-24T01:41:56;18.40;99.90
2389;DHT22;1205;47.984;7.668;2023-06-24T01:44:25;18.20;99.90
2389;DHT22;1205;47.984;7.668;2023-06-24T01:46:55;18.10;99.90
2389;DHT22;1205;47.984;7.668;2023-06-24T01:49:22;18.10;99.90
2389;DHT22;1205;47.984;7.668;2023-06-24T01:51:50;18.00;99.90
2389;DHT22;1205;47.984;7.668;2023-06-24T01:54:17;17.90;99.90
2389;DHT22;1205;47.984;7.668;2023-06-24T01:56:45;17.80;99.90
2389;DHT22;1205;47.984;7.668;2023-06-24T01:59:14;18.10;99.90
2389;DHT22;1205;47.984;7.668;2023-06-24T02:01:42;18.00;99.90
2389;DHT22;1205;47.984;7.668;2023-06-24T02:04:09;18.00;99.90
2389;DHT22;1205;47.984;7.668;2023-06-24T02:06:36;17.80;99.90
2389;DHT22;1205;47.984;7.668;2023-06-24T02:09:03;17.60;99.90
2389;DHT22;1205;47.984;7.668;2023-06-24T02:11:31;17.50;99.90
2389;DHT22;1205;47.984;7.668;2023-06-24T02:13:59;17.50;99.90
2389;DHT22;1205;47.984;7.668;2023-06-24T02:16:27;17.50;99.90
2389;DHT22;1205;47.984;7.668;2023-06-24T02:18:54;17.50;99.90
2389;DHT22;1205;47.984;7.668;2023-06-24T02:21:21;17.40;99.90
2389;DHT22;1205;47.984;7.668;2023-06-24T02:23:48;17.40;99.90
2389;DHT22;1205;47.984;7.668;2023-06-24T02:26:15;17.40;99.90
2389;DHT22;1205;47.984;7.668;2023-06-24T02:28:43;17.30;99.90
2389;DHT22;1205;47.984;7.668;2023-06-24T02:31:10;17.30;99.90
2389;DHT22;1205;47.984;7.668;2023-06-24T02:33:37;17.30;99.90
2389;DHT22;1205;47.984;7.668;2023-06-24T02:36:03;17.30;99.90
2389;DHT22;1205;47.984;7.668;2023-06-24T02:38:28;17.30;99.90
2389;DHT22;1205;47.984;7.668;2023-06-24T02:40:54;17.50;99.90
2389;DHT22;1205;47.984;7.668;2023-06-24T02:43:20;17.50;99.90
2389;DHT22;1205;47.984;7.668;2023-06-24T02:45:47;17.40;99.90
2389;DHT22;1205;47.984;7.668;2023-06-24T02:48:13;17.20;99.90
2389;DHT22;1205;47.984;7.668;2023-06-24T02:50:41;17.20;99.90
2389;DHT22;1205;47.984;7.668;2023-06-24T02:53:11;17.20;99.90
2389;DHT22;1205;47.984;7.668;2023-06-24T02:55:38;17.20;99.90
2389;DHT22;1205;47.984;7.668;2023-06-24T02:58:04;17.10;99.90
2389;DHT22;1205;47.984;7.668;2023-06-24T03:00:34;17.10;99.90
2389;DHT22;1205;47.984;7.668;2023-06-24T03:03:01;17.00;99.90
2389;DHT22;1205;47.984;7.668;2023-06-24T03:05:28;17.00;99.90
2389;DHT22;1205;47.984;7.668;2023-06-24T03:07:54;16.90;99.90
2389;DHT22;1205;47.984;7.668;2023-06-24T03:10:20;16.90;99.90
2389;DHT22;1205;47.984;7.668;2023-06-24T03:12:48;16.90;99.90
2389;DHT22;1205;47.984;7.668;2023-06-24T03:15:13;16.80;99.90
2389;DHT22;1205;47.984;7.668;2023-06-24T03:17:39;16.90;99.90
2389;DHT22;1205;47.984;7.668;2023-06-24T03:20:05;16.90;99.90
2389;DHT22;1205;47.984;7.668;2023-06-24T03:22:31;16.90;99.90
2389;DHT22;1205;47.984;7.668;2023-06-24T03:24:57;17.00;99.90
2389;DHT22;1205;47.984;7.668;2023-06-24T03:27:22;17.00;99.90
2389;DHT22;1205;47.984;7.668;2023-06-24T03:29:48;16.90;99.90
2389;DHT22;1205;47.984;7.668;2023-06-24T03:32:13;16.90;99.90
2389;DHT22;1205;47.984;7.668;2023-06-24T03:34:39;16.80;99.90
2389;DHT22;1205;47.984;7.668;2023-06-24T03:37:05;16.90;99.90
2389;DHT22;1205;47.984;7.668;2023-06-24T03:39:30;16.90;99.90
2389;DHT22;1205;47.984;7.668;2023-06-24T03:41:56;17.10;99.90
2389;DHT22;1205;47.984;7.668;2023-06-24T03:44:21;16.80;99.90
2389;DHT22;1205;47.984;7.668;2023-06-24T03:46:47;16.70;99.90
2389;DHT22;1205;47.984;7.668;2023-06-24T03:49:12;16.80;99.90
2389;DHT22;1205;47.984;7.668;2023-06-24T03:51:38;17.00;99.90
2389;DHT22;1205;47.984;7.668;2023-06-24T03:54:04;17.20;99.90
2389;DHT22;1205;47.984;7.668;2023-06-24T03:56:29;17.20;99.90
2389;DHT22;1205;47.984;7.668;2023-06-24T03:58:55;17.20;99.90
2389;DHT22;1205;47.984;7.668;2023-06-24T04:01:20;16.90;99.90
2389;DHT22;1205;47.984;7.668;2023-06-24T04:03:47;17.20;99.90
2389;DHT22;1205;47.984;7.668;2023-06-24T04:06:12;17.40;99.90
2389;DHT22;1205;47.984;7.668;2023-06-24T04:08:38;17.60;99.90
2389;DHT22;1205;47.984;7.668;2023-06-24T04:11:09;17.80;99.90
2389;DHT22;1205;47.984;7.668;2023-06-24T04:13:35;17.90;99.90
2389;DHT22;1205;47.984;7.668;2023-06-24T04:16:00;17.90;99.90
2389;DHT22;1205;47.984;7.668;2023-06-24T04:18:26;17.80;99.90
2389;DHT22;1205;47.984;7.668;2023-06-24T04:20:51;17.80;99.90
2389;DHT22;1205;47.984;7.668;2023-06-24T04:23:17;17.80;99.90
2389;DHT22;1205;47.984;7.668;2023-06-24T04:25:43;18.00;99.90
2389;DHT22;1205;47.984;7.668;2023-06-24T04:28:08;18.00;99.90
2389;DHT22;1205;47.984;7.668;2023-06-24T04:30:34;18.10;99.90
2389;DHT22;1205;47.984;7.668;2023-06-24T04:33:04;17.90;99.90
2389;DHT22;1205;47.984;7.668;2023-06-24T04:35:30;17.80;99.90
2389;DHT22;1205;47.984;7.668;2023-06-24T04:37:56;17.60;99.90
2389;DHT22;1205;47.984;7.668;2023-06-24T04:40:21;17.50;99.90
2389;DHT22;1205;47.984;7.668;2023-06-24T04:42:47;17.60;99.90
2389;DHT22;1205;47.984;7.668;2023-06-24T04:45:13;17.80;99.90
2389;DHT22;1205;47.984;7.668;2023-06-24T04:47:38;18.10;99.90
2389;DHT22;1205;47.984;7.668;2023-06-24T04:50:04;18.40;99.90
2389;DHT22;1205;47.984;7.668;2023-06-24T04:52:30;18.60;99.90
2389;DHT22;1205;47.984;7.668;2023-06-24T04:54:56;19.00;99.90
2389;DHT22;1205;47.984;7.668;2023-06-24T04:57:27;19.20;99.90
2389;DHT22;1205;47.984;7.668;2023-06-24T04:59:53;19.50;99.90
2389;DHT22;1205;47.984;7.668;2023-06-24T05:02:19;19.90;99.90
2389;DHT22;1205;47.984;7.668;2023-06-24T05:04:44;20.40;99.90
2389;DHT22;1205;47.984;7.668;2023-06-24T05:07:10;20.50;99.90
2389;DHT22;1205;47.984;7.668;2023-06-24T05:09:35;20.80;99.90
2389;DHT22;1205;47.984;7.668;2023-06-24T05:12:05;21.10;99.90
2389;DHT22;1205;47.984;7.668;2023-06-24T05:14:31;21.30;99.90
2389;DHT22;1205;47.984;7.668;2023-06-24T05:16:56;21.70;99.90
2389;DHT22;1205;47.984;7.668;2023-06-24T05:19:22;22.00;99.90
2389;DHT22;1205;47.984;7.668;2023-06-24T05:21:47;22.40;99.90
2389;DHT22;1205;47.984;7.668;2023-06-24T05:24:13;22.70;99.50
2389;DHT22;1205;47.984;7.668;2023-06-24T05:26:39;22.90;99.20
2389;DHT22;1205;47.984;7.668;2023-06-24T05:29:04;23.30;98.60
2389;DHT22;1205;47.984;7.668;2023-06-24T05:31:30;23.50;98.20
2389;DHT22;1205;47.984;7.668;2023-06-24T05:33:55;23.80;97.70
2389;DHT22;1205;47.984;7.668;2023-06-24T05:36:21;23.50;97.20
2389;DHT22;1205;47.984;7.668;2023-06-24T05:38:46;24.00;96.70
2389;DHT22;1205;47.984;7.668;2023-06-24T05:41:14;24.30;96.10
2389;DHT22;1205;47.984;7.668;2023-06-24T05:43:39;24.40;95.60
2389;DHT22;1205;47.984;7.668;2023-06-24T05:46:05;24.60;94.50
2389;DHT22;1205;47.984;7.668;2023-06-24T05:48:31;24.60;94.00
2389;DHT22;1205;47.984;7.668;2023-06-24T05:50:56;24.80;93.40
2389;DHT22;1205;47.984;7.668;2023-06-24T05:53:22;25.00;93.70
2389;DHT22;1205;47.984;7.668;2023-06-24T05:55:47;25.10;93.30
2389;DHT22;1205;47.984;7.668;2023-06-24T05:58:13;25.10;93.40
2389;DHT22;1205;47.984;7.668;2023-06-24T06:00:39;25.30;93.00
2389;DHT22;1205;47.984;7.668;2023-06-24T06:03:04;25.60;92.50
2389;DHT22;1205;47.984;7.668;2023-06-24T06:05:30;25.60;92.30
2389;DHT22;1205;47.984;7.668;2023-06-24T06:07:56;26.00;92.40
2389;DHT22;1205;47.984;7.668;2023-06-24T06:10:21;25.80;92.20
2389;DHT22;1205;47.984;7.668;2023-06-24T06:12:47;26.20;92.10
2389;DHT22;1205;47.984;7.668;2023-06-24T06:15:12;26.50;91.80
2389;DHT22;1205;47.984;7.668;2023-06-24T06:17:38;26.70;92.00
2389;DHT22;1205;47.984;7.668;2023-06-24T06:20:04;27.00;91.60
2389;DHT22;1205;47.984;7.668;2023-06-24T06:22:30;27.10;90.80
2389;DHT22;1205;47.984;7.668;2023-06-24T06:24:57;27.00;90.50
2389;DHT22;1205;47.984;7.668;2023-06-24T06:27:23;27.20;90.70
2389;DHT22;1205;47.984;7.668;2023-06-24T06:29:48;27.50;90.60
2389;DHT22;1205;47.984;7.668;2023-06-24T06:32:14;27.60;90.50
2389;DHT22;1205;47.984;7.668;2023-06-24T06:34:39;27.70;90.10
2389;DHT22;1205;47.984;7.668;2023-06-24T06:37:05;27.50;89.50
2389;DHT22;1205;47.984;7.668;2023-06-24T06:39:31;28.00;90.30
2389;DHT22;1205;47.984;7.668;2023-06-24T06:41:56;28.10;89.00
2389;DHT22;1205;47.984;7.668;2023-06-24T06:44:22;27.30;89.60
2389;DHT22;1205;47.984;7.668;2023-06-24T06:46:47;27.60;90.50
2389;DHT22;1205;47.984;7.668;2023-06-24T06:49:13;28.10;89.40
2389;DHT22;1205;47.984;7.668;2023-06-24T06:51:38;28.50;89.00
2389;DHT22;1205;47.984;7.668;2023-06-24T06:54:04;28.80;87.80
2389;DHT22;1205;47.984;7.668;2023-06-24T06:56:30;28.00;88.00
2389;DHT22;1205;47.984;7.668;2023-06-24T06:58:55;28.10;88.70
2389;DHT22;1205;47.984;7.668;2023-06-24T07:01:21;28.10;88.90
2389;DHT22;1205;47.984;7.668;2023-06-24T07:03:48;27.90;88.60
2389;DHT22;1205;47.984;7.668;2023-06-24T07:06:14;27.70;89.20
2389;DHT22;1205;47.984;7.668;2023-06-24T07:08:40;27.10;89.80
2389;DHT22;1205;47.984;7.668;2023-06-24T07:11:05;27.30;90.10
2389;DHT22;1205;47.984;7.668;2023-06-24T07:13:31;27.30;90.50
2389;DHT22;1205;47.984;7.668;2023-06-24T07:15:57;28.10;89.50
2389;DHT22;1205;47.984;7.668;2023-06-24T07:18:22;28.80;87.60
2389;DHT22;1205;47.984;7.668;2023-06-24T07:20:48;28.80;88.10
2389;DHT22;1205;47.984;7.668;2023-06-24T07:23:14;28.50;86.10
2389;DHT22;1205;47.984;7.668;2023-06-24T07:25:39;28.90;86.40
2389;DHT22;1205;47.984;7.668;2023-06-24T07:28:05;29.80;86.90
2389;DHT22;1205;47.984;7.668;2023-06-24T07:30:30;30.30;82.90
2389;DHT22;1205;47.984;7.668;2023-06-24T07:32:56;30.20;80.60
2389;DHT22;1205;47.984;7.668;2023-06-24T07:35:22;30.00;80.70
2389;DHT22;1205;47.984;7.668;2023-06-24T07:37:47;30.00;81.10
2389;DHT22;1205;47.984;7.668;2023-06-24T07:40:13;29.80;82.10
2389;DHT22;1205;47.984;7.668;2023-06-24T07:42:38;29.20;82.00
2389;DHT22;1205;47.984;7.668;2023-06-24T07:45:05;29.20;83.20
2389;DHT22;1205;47.984;7.668;2023-06-24T07:47:30;29.70;82.40
2389;DHT22;1205;47.984;7.668;2023-06-24T07:49:57;29.80;82.10
2389;DHT22;1205;47.984;7.668;2023-06-24T07:52:22;29.30;81.30
2389;DHT22;1205;47.984;7.668;2023-06-24T07:54:48;29.10;81.40
2389;DHT22;1205;47.984;7.668;2023-06-24T07:57:14;29.00;81.70
2389;DHT22;1205;47.984;7.668;2023-06-24T07:59:39;29.20;80.40
2389;DHT22;1205;47.984;7.668;2023-06-24T08:02:05;30.00;80.80
2389;DHT22;1205;47.984;7.668;2023-06-24T08:04:30;30.30;79.00
2389;DHT22;1205;47.984;7.668;2023-06-24T08:06:56;30.50;77.30
2389;DHT22;1205;47.984;7.668;2023-06-24T08:09:21;30.20;78.90
2389;DHT22;1205;47.984;7.668;2023-06-24T08:11:47;30.30;77.30
2389;DHT22;1205;47.984;7.668;2023-06-24T08:14:13;30.80;78.70
2389;DHT22;1205;47.984;7.668;2023-06-24T08:16:38;30.50;79.50
2389;DHT22;1205;47.984;7.668;2023-06-24T08:19:04;30.90;79.00
2389;DHT22;1205;47.984;7.668;2023-06-24T08:21:29;29.90;77.40
2389;DHT22;1205;47.984;7.668;2023-06-24T08:23:55;30.10;77.60
2389;DHT22;1205;47.984;7.668;2023-06-24T08:26:21;29.90;76.00
2389;DHT22;1205;47.984;7.668;2023-06-24T08:28:47;30.40;75.80
2389;DHT22;1205;47.984;7.668;2023-06-24T08:31:13;31.10;76.00
2389;DHT22;1205;47.984;7.668;2023-06-24T08:33:41;31.10;74.50
2389;DHT22;1205;47.984;7.668;2023-06-24T08:36:07;31.70;74.20
2389;DHT22;1205;47.984;7.668;2023-06-24T08:38:32;31.50;73.10
2389;DHT22;1205;47.984;7.668;2023-06-24T08:40:58;32.00;72.20
2389;DHT22;1205;47.984;7.668;2023-06-24T08:43:24;32.20;71.80
2389;DHT22;1205;47.984;7.668;2023-06-24T08:45:49;32.40;70.00
2389;DHT22;1205;47.984;7.668;2023-06-24T08:48:15;32.50;70.80
2389;DHT22;1205;47.984;7.668;2023-06-24T08:50:44;32.90;70.10
2389;DHT22;1205;47.984;7.668;2023-06-24T08:53:12;32.70;69.50
2389;DHT22;1205;47.984;7.668;2023-06-24T08:55:49;32.30;69.90
2389;DHT22;1205;47.984;7.668;2023-06-24T08:58:14;32.60;70.90
2389;DHT22;1205;47.984;7.668;2023-06-24T09:00:40;32.60;70.30
2389;DHT22;1205;47.984;7.668;2023-06-24T09:03:08;32.20;69.60
2389;DHT22;1205;47.984;7.668;2023-06-24T09:05:33;32.10;70.00
2389;DHT22;1205;47.984;7.668;2023-06-24T09:07:59;32.40;69.90
2389;DHT22;1205;47.984;7.668;2023-06-24T09:10:37;32.30;70.70
2389;DHT22;1205;47.984;7.668;2023-06-24T09:13:04;31.60;71.00
2389;DHT22;1205;47.984;7.668;2023-06-24T09:17:57;30.40;71.90
2389;DHT22;1205;47.984;7.668;2023-06-24T09:20:23;30.20;71.30
2389;DHT22;1205;47.984;7.668;2023-06-24T09:22:49;29.90;71.60
2389;DHT22;1205;47.984;7.668;2023-06-24T09:25:18;29.80;69.70
2389;DHT22;1205;47.984;7.668;2023-06-24T09:27:48;29.20;72.80
2389;DHT22;1205;47.984;7.668;2023-06-24T09:30:21;29.30;73.30
2389;DHT22;1205;47.984;7.668;2023-06-24T09:32:48;29.10;71.90
2389;DHT22;1205;47.984;7.668;2023-06-24T09:35:14;29.10;73.10
2389;DHT22;1205;47.984;7.668;2023-06-24T09:37:43;28.90;71.50
2389;DHT22;1205;47.984;7.668;2023-06-24T09:40:09;29.20;72.90
2389;DHT22;1205;47.984;7.668;2023-06-24T09:42:35;29.30;72.50
2389;DHT22;1205;47.984;7.668;2023-06-24T09:45:05;29.40;71.90
2389;DHT22;1205;47.984;7.668;2023-06-24T09:47:31;29.00;72.00
2389;DHT22;1205;47.984;7.668;2023-06-24T09:49:57;28.60;71.20
2389;DHT22;1205;47.984;7.668;2023-06-24T09:52:23;28.70;71.70
2389;DHT22;1205;47.984;7.668;2023-06-24T09:54:51;28.30;70.90
2389;DHT22;1205;47.984;7.668;2023-06-24T09:57:21;28.40;71.60
2389;DHT22;1205;47.984;7.668;2023-06-24T09:59:50;28.30;73.20
2389;DHT22;1205;47.984;7.668;2023-06-24T10:02:16;28.40;72.30
2389;DHT22;1205;47.984;7.668;2023-06-24T10:04:43;28.20;72.30
2389;DHT22;1205;47.984;7.668;2023-06-24T10:07:10;28.40;72.50
2389;DHT22;1205;47.984;7.668;2023-06-24T10:09:38;28.20;71.80
2389;DHT22;1205;47.984;7.668;2023-06-24T10:12:04;28.00;71.80
2389;DHT22;1205;47.984;7.668;2023-06-24T10:14:30;27.90;72.90
2389;DHT22;1205;47.984;7.668;2023-06-24T10:17:03;28.00;72.50
2389;DHT22;1205;47.984;7.668;2023-06-24T10:19:29;28.00;72.40
2389;DHT22;1205;47.984;7.668;2023-06-24T10:21:58;27.90;72.40
2389;DHT22;1205;47.984;7.668;2023-06-24T10:24:30;27.70;72.80
2389;DHT22;1205;47.984;7.668;2023-06-24T10:27:05;27.80;73.80
2389;DHT22;1205;47.984;7.668;2023-06-24T10:29:34;27.80;73.70
2389;DHT22;1205;47.984;7.668;2023-06-24T10:32:03;27.80;73.60
2389;DHT22;1205;47.984;7.668;2023-06-24T10:34:32;27.70;73.80
2389;DHT22;1205;47.984;7.668;2023-06-24T10:37:05;27.70;74.30
2389;DHT22;1205;47.984;7.668;2023-06-24T10:39:51;27.70;75.00
2389;DHT22;1205;47.984;7.668;2023-06-24T10:44:50;27.70;75.00
2389;DHT22;1205;47.984;7.668;2023-06-24T10:47:16;27.60;74.90
2389;DHT22;1205;47.984;7.668;2023-06-24T10:49:42;27.50;73.70
2389;DHT22;1205;47.984;7.668;2023-06-24T10:52:11;27.60;74.00
2389;DHT22;1205;47.984;7.668;2023-06-24T10:54:41;27.70;75.00
2389;DHT22;1205;47.984;7.668;2023-06-24T10:57:11;27.50;74.40
2389;DHT22;1205;47.984;7.668;2023-06-24T10:59:47;27.70;75.10
2389;DHT22;1205;47.984;7.668;2023-06-24T11:02:13;27.70;74.00
2389;DHT22;1205;47.984;7.668;2023-06-24T11:04:46;27.50;73.40
2389;DHT22;1205;47.984;7.668;2023-06-24T11:07:12;27.60;74.10
2389;DHT22;1205;47.984;7.668;2023-06-24T11:09:40;27.60;73.10
2389;DHT22;1205;47.984;7.668;2023-06-24T11:12:06;27.60;72.70
2389;DHT22;1205;47.984;7.668;2023-06-24T11:14:33;27.70;73.20
2389;DHT22;1205;47.984;7.668;2023-06-24T11:17:03;27.60;72.90
2389;DHT22;1205;47.984;7.668;2023-06-24T11:19:30;27.70;73.60
2389;DHT22;1205;47.984;7.668;2023-06-24T11:21:59;27.80;73.00
2389;DHT22;1205;47.984;7.668;2023-06-24T11:24:26;27.80;72.30
2389;DHT22;1205;47.984;7.668;2023-06-24T11:26:51;27.90;73.90
2389;DHT22;1205;47.984;7.668;2023-06-24T11:29:17;27.90;71.50
2389;DHT22;1205;47.984;7.668;2023-06-24T11:31:44;27.90;71.00
2389;DHT22;1205;47.984;7.668;2023-06-24T11:34:10;28.00;71.50
2389;DHT22;1205;47.984;7.668;2023-06-24T11:36:36;28.10;71.40
2389;DHT22;1205;47.984;7.668;2023-06-24T11:39:02;28.00;70.10
2389;DHT22;1205;47.984;7.668;2023-06-24T11:41:28;27.90;70.20
2389;DHT22;1205;47.984;7.668;2023-06-24T11:43:54;27.90;70.10
2389;DHT22;1205;47.984;7.668;2023-06-24T11:46:29;27.90;70.10
2389;DHT22;1205;47.984;7.668;2023-06-24T11:49:07;28.00;68.80
2389;DHT22;1205;47.984;7.668;2023-06-24T11:51:34;28.00;69.70
2389;DHT22;1205;47.984;7.668;2023-06-24T11:54:01;28.00;68.70
2389;DHT22;1205;47.984;7.668;2023-06-24T11:56:37;28.00;69.10
2389;DHT22;1205;47.984;7.668;2023-06-24T11:59:22;28.00;69.40
2389;DHT22;1205;47.984;7.668;2023-06-24T12:01:58;27.90;69.30
2389;DHT22;1205;47.984;7.668;2023-06-24T12:04:32;27.90;69.50
2389;DHT22;1205;47.984;7.668;2023-06-24T12:06:58;27.80;70.70
2389;DHT22;1205;47.984;7.668;2023-06-24T12:09:24;27.90;70.10
2389;DHT22;1205;47.984;7.668;2023-06-24T12:11:51;28.00;69.90
2389;DHT22;1205;47.984;7.668;2023-06-24T12:14:17;28.00;69.70
2389;DHT22;1205;47.984;7.668;2023-06-24T12:16:43;28.00;69.50
2389;DHT22;1205;47.984;7.668;2023-06-24T12:19:09;28.10;69.10
2389;DHT22;1205;47.984;7.668;2023-06-24T12:21:35;28.10;69.40
2389;DHT22;1205;47.984;7.668;2023-06-24T12:24:04;28.10;67.90
2389;DHT22;1205;47.984;7.668;2023-06-24T12:26:31;28.10;68.10
2389;DHT22;1205;47.984;7.668;2023-06-24T12:28:57;28.10;68.10
2389;DHT22;1205;47.984;7.668;2023-06-24T12:31:23;28.20;70.40
2389;DHT22;1205;47.984;7.668;2023-06-24T12:33:50;28.40;69.30
2389;DHT22;1205;47.984;7.668;2023-06-24T12:36:15;28.30;69.50
2389;DHT22;1205;47.984;7.668;2023-06-24T12:38:41;28.30;69.10
2389;DHT22;1205;47.984;7.668;2023-06-24T12:41:06;28.30;68.70
2389;DHT22;1205;47.984;7.668;2023-06-24T12:43:32;28.30;70.40
2389;DHT22;1205;47.984;7.668;2023-06-24T12:45:58;28.20;68.70
2389;DHT22;1205;47.984;7.668;2023-06-24T12:48:24;28.30;69.80
2389;DHT22;1205;47.984;7.668;2023-06-24T12:50:49;28.20;68.90
2389;DHT22;1205;47.984;7.668;2023-06-24T12:53:21;28.30;69.40
2389;DHT22;1205;47.984;7.668;2023-06-24T12:55:47;28.30;68.40
2389;DHT22;1205;47.984;7.668;2023-06-24T12:58:19;28.40;68.60
2389;DHT22;1205;47.984;7.668;2023-06-24T13:00:45;28.20;67.00
2389;DHT22;1205;47.984;7.668;2023-06-24T13:03:10;28.40;66.80
2389;DHT22;1205;47.984;7.668;2023-06-24T13:05:36;28.40;66.70
2389;DHT22;1205;47.984;7.668;2023-06-24T13:08:01;28.40;67.00
2389;DHT22;1205;47.984;7.668;2023-06-24T13:10:27;28.40;67.90
2389;DHT22;1205;47.984;7.668;2023-06-24T13:12:52;28.50;67.20
2389;DHT22;1205;47.984;7.668;2023-06-24T13:15:18;28.40;65.50
2389;DHT22;1205;47.984;7.668;2023-06-24T13:17:44;28.40;69.00
2389;DHT22;1205;47.984;7.668;2023-06-24T13:20:10;28.60;69.10
2389;DHT22;1205;47.984;7.668;2023-06-24T13:22:36;28.60;68.20
2389;DHT22;1205;47.984;7.668;2023-06-24T13:25:01;28.60;68.00
2389;DHT22;1205;47.984;7.668;2023-06-24T13:27:27;28.60;68.20
2389;DHT22;1205;47.984;7.668;2023-06-24T13:29:52;28.50;67.00
2389;DHT22;1205;47.984;7.668;2023-06-24T13:32:18;28.50;64.60
2389;DHT22;1205;47.984;7.668;2023-06-24T13:34:45;28.60;64.80
2389;DHT22;1205;47.984;7.668;2023-06-24T13:37:10;28.50;64.00
2389;DHT22;1205;47.984;7.668;2023-06-24T13:39:36;28.50;64.80
2389;DHT22;1205;47.984;7.668;2023-06-24T13:42:01;28.70;65.40
2389;DHT22;1205;47.984;7.668;2023-06-24T13:44:27;28.80;65.00
2389;DHT22;1205;47.984;7.668;2023-06-24T13:46:52;28.90;64.10
2389;DHT22;1205;47.984;7.668;2023-06-24T13:49:22;28.80;63.50
2389;DHT22;1205;47.984;7.668;2023-06-24T13:51:48;28.90;65.50
2389;DHT22;1205;47.984;7.668;2023-06-24T13:54:13;28.80;64.10
2389;DHT22;1205;47.984;7.668;2023-06-24T13:56:39;28.90;64.00
2389;DHT22;1205;47.984;7.668;2023-06-24T13:59:05;28.90;64.40
2389;DHT22;1205;47.984;7.668;2023-06-24T14:01:30;28.90;63.40
2389;DHT22;1205;47.984;7.668;2023-06-24T14:03:57;28.90;63.90
2389;DHT22;1205;47.984;7.668;2023-06-24T14:06:23;28.80;63.20
2389;DHT22;1205;47.984;7.668;2023-06-24T14:08:49;28.70;62.70
2389;DHT22;1205;47.984;7.668;2023-06-24T14:11:18;28.80;63.50
2389;DHT22;1205;47.984;7.668;2023-06-24T14:13:44;28.80;63.60
2389;DHT22;1205;47.984;7.668;2023-06-24T14:16:10;28.80;62.60
2389;DHT22;1205;47.984;7.668;2023-06-24T14:18:36;28.80;62.90
2389;DHT22;1205;47.984;7.668;2023-06-24T14:21:04;28.80;63.10
2389;DHT22;1205;47.984;7.668;2023-06-24T14:23:31;28.90;63.60
2389;DHT22;1205;47.984;7.668;2023-06-24T14:25:57;29.00;63.20
2389;DHT22;1205;47.984;7.668;2023-06-24T14:28:23;28.90;62.30
2389;DHT22;1205;47.984;7.668;2023-06-24T14:30:48;29.00;63.20
2389;DHT22;1205;47.984;7.668;2023-06-24T14:33:14;29.00;63.40
2389;DHT22;1205;47.984;7.668;2023-06-24T14:35:41;29.00;63.40
2389;DHT22;1205;47.984;7.668;2023-06-24T14:38:07;29.20;62.70
2389;DHT22;1205;47.984;7.668;2023-06-24T14:40:33;29.30;61.70
2389;DHT22;1205;47.984;7.668;2023-06-24T14:42:59;29.00;61.20
2389;DHT22;1205;47.984;7.668;2023-06-24T14:45:25;29.00;62.20
2389;DHT22;1205;47.984;7.668;2023-06-24T14:47:51;29.10;63.70
2389;DHT22;1205;47.984;7.668;2023-06-24T14:50:17;29.00;62.20
2389;DHT22;1205;47.984;7.668;2023-06-24T14:52:42;29.10;62.30
2389;DHT22;1205;47.984;7.668;2023-06-24T14:55:08;29.20;63.10
2389;DHT22;1205;47.984;7.668;2023-06-24T14:57:35;29.20;61.60
2389;DHT22;1205;47.984;7.668;2023-06-24T15:00:01;29.20;62.30
2389;DHT22;1205;47.984;7.668;2023-06-24T15:02:26;29.10;62.40
2389;DHT22;1205;47.984;7.668;2023-06-24T15:04:52;29.20;62.60
2389;DHT22;1205;47.984;7.668;2023-06-24T15:07:18;29.30;61.90
2389;DHT22;1205;47.984;7.668;2023-06-24T15:09:43;29.20;62.30
2389;DHT22;1205;47.984;7.668;2023-06-24T15:12:09;29.10;61.40
2389;DHT22;1205;47.984;7.668;2023-06-24T15:14:35;29.10;61.90
2389;DHT22;1205;47.984;7.668;2023-06-24T15:17:01;29.30;61.70
2389;DHT22;1205;47.984;7.668;2023-06-24T15:19:26;29.20;61.40
2389;DHT22;1205;47.984;7.668;2023-06-24T15:21:52;29.30;61.10
2389;DHT22;1205;47.984;7.668;2023-06-24T15:24:18;29.10;60.30
2389;DHT22;1205;47.984;7.668;2023-06-24T15:26:44;29.20;60.90
2389;DHT22;1205;47.984;7.668;2023-06-24T15:29:09;29.20;62.10
2389;DHT22;1205;47.984;7.668;2023-06-24T15:31:35;29.30;60.80
2389;DHT22;1205;47.984;7.668;2023-06-24T15:34:00;29.30;60.00
2389;DHT22;1205;47.984;7.668;2023-06-24T15:36:26;29.40;61.10
2389;DHT22;1205;47.984;7.668;2023-06-24T15:38:54;29.40;60.70
2389;DHT22;1205;47.984;7.668;2023-06-24T15:41:20;29.40;60.20
2389;DHT22;1205;47.984;7.668;2023-06-24T15:43:45;29.40;60.60
2389;DHT22;1205;47.984;7.668;2023-06-24T15:46:11;29.50;61.30
2389;DHT22;1205;47.984;7.668;2023-06-24T15:48:36;29.60;62.40
2389;DHT22;1205;47.984;7.668;2023-06-24T15:51:02;29.60;62.90
2389;DHT22;1205;47.984;7.668;2023-06-24T15:53:28;29.50;63.70
2389;DHT22;1205;47.984;7.668;2023-06-24T15:55:54;29.60;64.80
2389;DHT22;1205;47.984;7.668;2023-06-24T15:58:20;29.40;64.50
2389;DHT22;1205;47.984;7.668;2023-06-24T16:00:45;29.50;65.60
2389;DHT22;1205;47.984;7.668;2023-06-24T16:03:11;29.60;62.20
2389;DHT22;1205;47.984;7.668;2023-06-24T16:05:36;29.60;62.60
2389;DHT22;1205;47.984;7.668;2023-06-24T16:08:02;29.60;62.40
2389;DHT22;1205;47.984;7.668;2023-06-24T16:10:28;29.60;62.10
2389;DHT22;1205;47.984;7.668;2023-06-24T16:12:54;29.60;63.30